Milton Village, Massachusetts
Current Conditions -  °F | °C
As of 9:54 PM on Thursday 27 Nov 2014 (Local Time) from KBOS Reporting Station
Light Snow Light Snow  
Wind Chill: 22°   Ceiling: 3500
Heat Index: 31°   Visibility: 4mi
Dew Point: 28°   Wind: 10mph
Humidity: 89%   Direction: 320°NW
Pressure: 30.01"   Gusts: NA
Location:  42.28°N, 71.08°W
Report Text: KBOS 280254Z 32009KT 4SM -SN BR FEW013 OVC035 M01/M02 A3001 RMK AO2 SLP161 P0000 60000 T10061022 50003
Loading
Personal Weather Stations






























Interactive Weather Map New forecast layout! Learn more

10-Day Weather Forecast

Advertisements
Track Severe Weather on mobile